Ana Sayfa
METAR-TAF:

METAR-TAF

Havaalanları :

Casper, Wyoming, Amerika Birleşik Devletleri

Enlem: 42-53-51N, Boylam: 106-28-23W, yükseklik: 1630 m

Güncel hava durumu gözlemi

Rapor saat 22:53 UTC de 20 dakika önce yapıldı.
Rüzgar güneybatıdan 7 kt, güney/güneydoğu ve batı arasında değişken
Sıcaklık 33°C
Nem 9%
Basınç 1019 hPa
Görüş mesafesi: 16.1 km
Açık gökyüzü

METAR: KCPR 032253Z AUTO 22007KT 150V260 10SM CLR 33/M04 A3008 RMK AO2 SLP117 T03331044

Saat: 17:13 (23:13 UTC)

Tahmin

Rapor saat 21:50 UTC de 1 saat ve 23 dakika önce yapıldı.
Ayın 03'si saat 22 UTC'den ayın 04'si saat 18 UTC'ye kadar geçerli Tahmin
Rüzgar güney/güneybatıdan 13 kt ve 24 kt'a kadar ani rüzgarlar
Görüş mesafesi: 10 km
Açık gökyüzü
Ayın 04'si saat 0200 UTC'den
Rüzgar güneybatıdan 7 kt
Görüş mesafesi: 10 km
Açık gökyüzü

TAF: KCPR 032150Z 0322/0418 21013G24KT P6SM SKC FM040200 22007KT P6SM SKC

4.000'den fazla havaalanı için hava durumu gözlemleri ve tahminleri (METAR ve TAF raporları).

Kullanılabilir istasyonlar harita üzerinde sarı ve kırmızı noktalarla gösterilir.

İstasyonun adını görmek için fareyi noktanın üzerinde gezdirin.

Sonrasında hava gözlem ve tahminlerini görmek için tıklayın.

Haritayı değiştirmek için: yaklaştırmak için siyah artı işaretli yeşil düğmeye ve uzaklaştırmak için de eksi işaretli düğmeye hızla tıklayın; bitişik haritalar için yeşil okları kullanın.


METAR-TAF: